Terminal Aerodrome Forecast
Issued by NWS Boston, MA

Home | Current Version | Previous Version | Text Only | Print | Product List | Glossary On
Versions: 1 2 3 4 5 6 7 8 9 10 11 12 13 14 15 16 17 18 19 20 21 22 23
000
FTUS41 KBOX 290830 AAA
TAFPVD
TAF AMD
KPVD 290830Z 2909/3006 10004KT P6SM OVC060
     FM291000 09005KT P6SM OVC090
     FM292300 12007KT P6SM OVC090
     FM300400 VRB03KT P6SM OVC090=

USA.gov is the U.S. government's official web portal to all federal, state and local government web resources and services.